Time;durP1;ratioP1;P1;durP2;ratioP2;P2;SDS_P1;SDS_P2;PMS_P1;PMS_P2;Temp;Humidity;BMP_temperature;BMP_pressure;BME280_temperature;BME280_humidity;BME280_pressure;Samples;Min_cycle;Max_cycle;Signal;HPM_P1;HPM_P2
2023/04/22 00:00:22;;;;;;;12.60;8.30;;;;;;;-145.41;100.00;58600.66;4981572;28;20034;-72
2023/04/22 00:02:48;;;;;;;11.80;7.90;;;;;;;-145.41;100.00;58600.66;4984065;28;20038;-72
2023/04/22 00:05:13;;;;;;;10.90;7.60;;;;;;;-145.41;100.00;58600.66;4981759;28;20066;-72
2023/04/22 00:07:39;;;;;;;13.20;7.10;;;;;;;-145.41;100.00;58600.66;4983473;28;20485;-72
2023/04/22 00:10:06;;;;;;;12.20;8.13;;;;;;;-145.41;100.00;58600.66;4981723;28;20074;-72
2023/04/22 00:12:33;;;;;;;13.90;10.05;;;;;;;-145.41;100.00;58600.66;4982396;28;20478;-72
2023/04/22 00:14:58;;;;;;;17.85;8.90;;;;;;;-145.41;100.00;58600.66;4983046;28;20038;-72
2023/04/22 00:17:23;;;;;;;14.40;8.40;;;;;;;-145.41;100.00;58600.66;4982458;28;20035;-72
2023/04/22 00:19:49;;;;;;;12.30;8.50;;;;;;;-145.41;100.00;58600.66;4982557;28;20049;-72
2023/04/22 00:22:14;;;;;;;12.00;7.78;;;;;;;-145.41;100.00;58600.66;4980562;28;20038;-72
2023/04/22 00:24:40;;;;;;;10.77;7.70;;;;;;;-145.41;100.00;58600.66;4983155;28;20046;-72
2023/04/22 00:27:05;;;;;;;11.05;7.35;;;;;;;-145.41;100.00;58600.66;4982490;28;20129;-72
2023/04/22 00:29:30;;;;;;;12.73;7.25;;;;;;;-145.41;100.00;58600.66;4982078;28;20417;-72
2023/04/22 00:31:56;;;;;;;10.50;7.30;;;;;;;-145.41;100.00;58600.66;4982521;28;20093;-72
2023/04/22 00:34:21;;;;;;;12.05;7.05;;;;;;;-145.41;100.00;58600.66;4982147;28;20113;-72
2023/04/22 00:36:46;;;;;;;11.43;7.45;;;;;;;-145.41;100.00;58600.66;4982690;28;20046;-72
2023/04/22 00:39:12;;;;;;;12.88;8.27;;;;;;;-145.41;100.00;58600.66;4966219;28;20049;-72
2023/04/22 00:41:39;;;;;;;10.73;7.15;;;;;;;-145.41;100.00;58600.66;4964183;28;20089;-72
2023/04/22 00:44:08;;;;;;;11.73;7.55;;;;;;;-145.41;100.00;58600.66;4983126;28;20038;-72
2023/04/22 00:46:36;;;;;;;12.52;8.40;;;;;;;-145.41;100.00;58600.66;4980955;28;20077;-72
2023/04/22 00:49:01;;;;;;;10.57;8.25;;;;;;;-145.41;100.00;58600.66;4983691;28;20038;-72
2023/04/22 00:51:27;;;;;;;11.90;8.18;;;;;;;-145.41;100.00;58600.66;4980460;28;20077;-72
2023/04/22 00:53:52;;;;;;;11.27;7.35;;;;;;;-145.41;100.00;58600.66;4973748;28;20057;-72
2023/04/22 00:56:20;;;;;;;11.63;7.20;;;;;;;-145.41;100.00;58600.66;4976464;28;20042;-72
2023/04/22 00:58:45;;;;;;;12.07;7.57;;;;;;;-145.41;100.00;58600.66;4983404;28;20042;-72
2023/04/22 01:01:11;;;;;;;10.80;7.47;;;;;;;-145.41;100.00;58600.66;4980535;28;20038;-72
2023/04/22 01:03:39;;;;;;;10.10;7.20;;;;;;;-145.41;100.00;58600.66;4981597;28;20039;-72
2023/04/22 01:06:04;;;;;;;11.23;8.43;;;;;;;-145.41;100.00;58600.66;4981871;28;20519;-72
2023/04/22 01:08:29;;;;;;;11.55;8.10;;;;;;;-145.41;100.00;58600.66;4982897;28;20121;-72
2023/04/22 01:10:56;;;;;;;11.80;7.55;;;;;;;-145.41;100.00;58600.66;4971864;28;20070;-72
2023/04/22 01:13:21;;;;;;;9.68;7.68;;;;;;;-145.41;100.00;58600.66;4983222;28;20030;-72
2023/04/22 01:15:47;;;;;;;11.13;7.90;;;;;;;-145.41;100.00;58600.66;4982540;28;20408;-72
2023/04/22 01:18:13;;;;;;;10.90;7.65;;;;;;;-145.41;100.00;58600.66;4964143;28;20562;-72
2023/04/22 01:20:38;;;;;;;11.90;8.00;;;;;;;-145.41;100.00;58600.66;4985573;28;20038;-72
2023/04/22 01:23:15;;;;;;;13.70;8.25;;;;;;;-145.41;100.00;58600.66;4983248;28;20453;-72
2023/04/22 01:25:41;;;;;;;12.75;7.88;;;;;;;-145.41;100.00;58600.66;4981026;28;20058;-72
2023/04/22 01:28:06;;;;;;;12.77;8.35;;;;;;;-145.41;100.00;58600.66;4986989;28;20038;-72
2023/04/22 01:30:32;;;;;;;12.55;7.53;;;;;;;-145.41;100.00;58600.66;4966523;28;20054;-72
2023/04/22 01:32:58;;;;;;;11.65;7.40;;;;;;;-145.41;100.00;58600.66;4987499;28;20090;-72
2023/04/22 01:35:24;;;;;;;14.75;8.15;;;;;;;-145.41;100.00;58600.66;4983668;28;20057;-72
2023/04/22 01:37:49;;;;;;;12.18;7.85;;;;;;;-145.41;100.00;58600.66;4979933;28;20512;-74
2023/04/22 01:40:18;;;;;;;12.43;8.20;;;;;;;-145.41;100.00;58600.66;4968331;28;20038;-72
2023/04/22 01:42:44;;;;;;;10.63;7.65;;;;;;;-145.41;100.00;58600.66;4986593;28;20406;-72
2023/04/22 01:45:11;;;;;;;11.52;7.40;;;;;;;-145.41;100.00;58600.66;4984499;28;20039;-72
2023/04/22 01:47:37;;;;;;;8.73;6.55;;;;;;;-145.41;100.00;58600.66;4986153;28;20038;-72
2023/04/22 01:50:03;;;;;;;12.07;8.05;;;;;;;-145.41;100.00;58600.66;4979633;28;20034;-72
2023/04/22 01:52:29;;;;;;;10.48;7.90;;;;;;;-145.41;100.00;58600.66;4984694;28;20512;-72
2023/04/22 01:54:55;;;;;;;14.35;8.50;;;;;;;-145.41;100.00;58600.66;4971722;28;20503;-72
2023/04/22 01:57:20;;;;;;;10.50;7.15;;;;;;;-145.41;100.00;58600.66;4967248;28;20079;-73
2023/04/22 01:59:45;;;;;;;11.70;8.10;;;;;;;-145.41;100.00;58600.66;4981979;28;20038;-73
2023/04/22 02:02:11;;;;;;;11.48;8.10;;;;;;;-145.41;100.00;58600.66;4967675;28;20038;-73
2023/04/22 02:04:36;;;;;;;12.02;7.30;;;;;;;-145.41;100.00;58600.66;4985281;28;20117;-72
2023/04/22 02:07:01;;;;;;;13.25;7.70;;;;;;;-145.41;100.00;58600.66;4975969;28;20487;-72
2023/04/22 02:09:27;;;;;;;11.30;7.40;;;;;;;-145.41;100.00;58600.66;4986592;28;20031;-73
2023/04/22 02:11:52;;;;;;;12.02;7.97;;;;;;;-145.41;100.00;58600.66;4984747;28;20497;-73
2023/04/22 02:14:19;;;;;;;13.07;9.15;;;;;;;-145.41;100.00;58600.66;4976574;28;20035;-73
2023/04/22 02:16:45;;;;;;;9.93;7.10;;;;;;;-145.41;100.00;58600.66;4984823;28;20038;-73
2023/04/22 02:19:10;;;;;;;10.98;7.38;;;;;;;-145.41;100.00;58600.66;4974350;28;20098;-73
2023/04/22 02:21:36;;;;;;;10.77;7.57;;;;;;;-145.41;100.00;58600.66;4985486;28;20030;-73
2023/04/22 02:24:02;;;;;;;11.18;8.15;;;;;;;-145.41;100.00;58600.66;4974247;28;20055;-72
2023/04/22 02:26:27;;;;;;;12.82;8.02;;;;;;;-145.41;100.00;58600.66;4984159;28;20118;-73
2023/04/22 02:28:53;;;;;;;11.82;8.60;;;;;;;-145.41;100.00;58600.66;4985658;28;20038;-72
2023/04/22 02:31:19;;;;;;;14.43;8.45;;;;;;;-145.41;100.00;58600.66;4966131;28;20051;-72
2023/04/22 02:33:45;;;;;;;11.10;8.48;;;;;;;-145.41;100.00;58600.66;4976794;28;20060;-73
2023/04/22 02:36:10;;;;;;;10.93;7.97;;;;;;;-145.41;100.00;58600.66;4983000;28;20062;-73
2023/04/22 02:38:37;;;;;;;14.43;8.30;;;;;;;-145.41;100.00;58600.66;4986139;28;20030;-73
2023/04/22 02:41:02;;;;;;;12.68;8.32;;;;;;;-145.41;100.00;58600.66;4950419;28;20033;-72
2023/04/22 02:43:28;;;;;;;12.40;8.23;;;;;;;-145.41;100.00;58600.66;4972687;28;20030;-73
2023/04/22 02:45:53;;;;;;;12.02;8.05;;;;;;;-145.41;100.00;58600.66;4962005;28;20046;-73
2023/04/22 02:48:19;;;;;;;10.63;8.10;;;;;;;-145.41;100.00;58600.66;4970384;28;20030;-73
2023/04/22 02:50:44;;;;;;;12.57;8.90;;;;;;;-145.41;100.00;58600.66;4982273;28;20031;-72
2023/04/22 02:53:09;;;;;;;10.75;7.90;;;;;;;-145.41;100.00;58600.66;4985807;28;20034;-72
2023/04/22 02:55:35;;;;;;;15.30;8.82;;;;;;;-145.41;100.00;58600.66;4973541;28;20516;-73
2023/04/22 02:58:00;;;;;;;13.88;8.38;;;;;;;-145.41;100.00;58600.66;4976037;28;20065;-72
2023/04/22 03:00:26;;;;;;;12.85;8.32;;;;;;;-145.41;100.00;58600.66;4973790;28;20034;-73
2023/04/22 03:02:52;;;;;;;12.32;7.80;;;;;;;-145.41;100.00;58600.66;4973751;28;20045;-73
2023/04/22 03:05:21;;;;;;;12.00;7.80;;;;;;;-145.41;100.00;58600.66;4984719;28;20042;-72
2023/04/22 03:07:46;;;;;;;11.15;7.80;;;;;;;-145.41;100.00;58600.66;4974275;28;20039;-73
2023/04/22 03:10:13;;;;;;;14.60;9.25;;;;;;;-145.41;100.00;58600.66;4972391;28;20034;-73
2023/04/22 03:12:39;;;;;;;15.43;8.63;;;;;;;-145.41;100.00;58600.66;4974333;28;20162;-73
2023/04/22 03:15:06;;;;;;;14.27;8.73;;;;;;;-145.41;100.00;58600.66;4966483;28;20034;-73
2023/04/22 03:17:31;;;;;;;12.77;8.38;;;;;;;-145.41;100.00;58600.66;4964470;28;20057;-72
2023/04/22 03:19:59;;;;;;;16.10;8.93;;;;;;;-145.41;100.00;58600.66;4965657;28;20090;-73
2023/04/22 03:22:24;;;;;;;11.88;8.63;;;;;;;-145.41;100.00;58600.66;4966912;28;20513;-72
2023/04/22 03:24:52;;;;;;;13.60;9.55;;;;;;;-145.41;100.00;58600.66;4972951;28;20401;-72
2023/04/22 03:27:18;;;;;;;13.65;9.32;;;;;;;-145.41;100.00;58600.66;4971846;28;20035;-72
2023/04/22 03:29:43;;;;;;;12.82;8.18;;;;;;;-145.41;100.00;58600.66;4967265;28;20133;-73
2023/04/22 03:32:09;;;;;;;12.10;8.50;;;;;;;-145.41;100.00;58600.66;4973522;28;20054;-72
2023/04/22 03:34:35;;;;;;;15.43;10.25;;;;;;;-145.41;100.00;58600.66;4964633;28;20517;-72
2023/04/22 03:37:01;;;;;;;12.95;8.90;;;;;;;-145.41;100.00;58600.66;4985018;28;20026;-73
2023/04/22 03:39:26;;;;;;;16.55;9.88;;;;;;;-145.41;100.00;58600.66;4970256;28;20034;-72
2023/04/22 03:41:52;;;;;;;12.65;8.95;;;;;;;-145.41;100.00;58600.66;4962817;28;20034;-72
2023/04/22 03:44:17;;;;;;;14.45;8.82;;;;;;;-145.41;100.00;58600.66;4971891;28;20557;-73
2023/04/22 03:46:44;;;;;;;15.20;9.65;;;;;;;-145.41;100.00;58600.66;4957080;28;20039;-73
2023/04/22 03:49:22;;;;;;;16.13;9.77;;;;;;;-145.41;100.00;58600.66;4973411;28;20030;-73
2023/04/22 03:51:48;;;;;;;14.80;8.68;;;;;;;-145.41;100.00;58600.66;4973964;28;20058;-72
2023/04/22 03:54:16;;;;;;;14.68;8.27;;;;;;;-145.41;100.00;58600.66;4974660;28;20104;-73
2023/04/22 03:56:48;;;;;;;13.38;9.18;;;;;;;-145.41;100.00;58600.66;4981523;28;20031;-72
2023/04/22 03:59:14;;;;;;;12.43;8.57;;;;;;;-145.41;100.00;58600.66;4975037;28;20030;-72
2023/04/22 04:01:40;;;;;;;13.93;9.48;;;;;;;-145.41;100.00;58600.66;4963743;28;20035;-72
2023/04/22 04:04:07;;;;;;;15.07;9.65;;;;;;;-145.41;100.00;58600.66;4967760;28;20031;-72
2023/04/22 04:06:38;;;;;;;15.38;10.57;;;;;;;-145.41;100.00;58600.66;4966438;28;20038;-72
2023/04/22 04:09:04;;;;;;;13.73;9.65;;;;;;;-145.41;100.00;58600.66;4964323;28;20043;-72
2023/04/22 04:11:30;;;;;;;14.95;10.23;;;;;;;-145.41;100.00;58600.66;4983354;28;20485;-72
2023/04/22 04:13:56;;;;;;;15.88;11.32;;;;;;;-145.41;100.00;58600.66;4963549;28;20044;-72
2023/04/22 04:16:29;;;;;;;14.73;10.10;;;;;;;-145.41;100.00;58600.66;4966060;28;20035;-72
2023/04/22 04:19:02;;;;;;;14.77;10.40;;;;;;;-145.41;100.00;58600.66;4963559;28;20031;-72
2023/04/22 04:21:32;;;;;;;16.33;10.32;;;;;;;-145.41;100.00;58600.66;4966566;28;20038;-72
2023/04/22 04:23:58;;;;;;;15.32;10.00;;;;;;;-145.41;100.00;58600.66;4966355;28;20049;-72
2023/04/22 04:26:27;;;;;;;15.02;9.48;;;;;;;-145.41;100.00;58600.66;4983407;28;20129;-72
2023/04/22 04:29:00;;;;;;;14.57;9.55;;;;;;;-145.41;100.00;58600.66;4964966;28;20473;-72
2023/04/22 04:31:27;;;;;;;16.17;11.27;;;;;;;-145.41;100.00;58600.66;4964415;28;20057;-72
2023/04/22 04:33:56;;;;;;;13.98;9.90;;;;;;;-145.41;100.00;58600.66;4966081;28;20045;-72
2023/04/22 04:36:24;;;;;;;14.27;9.63;;;;;;;-145.41;100.00;58600.66;4965938;28;20040;-72
2023/04/22 04:38:50;;;;;;;15.15;10.02;;;;;;;-145.41;100.00;58600.66;4962981;28;20676;-72
2023/04/22 04:41:16;;;;;;;16.45;10.20;;;;;;;-145.41;100.00;58600.66;4966893;28;20117;-72
2023/04/22 04:43:45;;;;;;;14.13;9.95;;;;;;;-145.41;100.00;58600.66;4962927;28;20077;-72
2023/04/22 04:46:20;;;;;;;14.93;9.95;;;;;;;-145.41;100.00;58600.66;4962563;28;20101;-72
2023/04/22 04:48:47;;;;;;;17.00;10.90;;;;;;;-145.41;100.00;58600.66;4970739;28;20489;-72
2023/04/22 04:51:13;;;;;;;18.17;11.75;;;;;;;-145.41;100.00;58600.66;4962640;28;20061;-72
2023/04/22 04:53:46;;;;;;;19.67;11.85;;;;;;;-145.41;100.00;58600.66;4963033;28;20060;-72
2023/04/22 04:56:12;;;;;;;15.20;10.65;;;;;;;-145.41;100.00;58600.66;4983587;28;20413;-73
2023/04/22 04:58:38;;;;;;;14.38;10.95;;;;;;;-145.41;100.00;58600.66;4962920;28;20512;-72
2023/04/22 05:01:15;;;;;;;14.50;10.52;;;;;;;-145.41;100.00;58600.66;4964295;28;20409;-72
2023/04/22 05:03:42;;;;;;;17.55;10.18;;;;;;;-145.41;100.00;58600.66;4964840;28;20030;-72
2023/04/22 05:06:07;;;;;;;15.75;10.95;;;;;;;-145.41;100.00;58600.66;4965365;28;20033;-72
2023/04/22 05:08:35;;;;;;;13.10;9.45;;;;;;;-145.41;100.00;58600.66;4964758;28;20041;-73
2023/04/22 05:11:07;;;;;;;14.73;9.93;;;;;;;-145.41;100.00;58600.66;4970901;28;20093;-73
2023/04/22 05:13:32;;;;;;;16.08;9.75;;;;;;;-145.41;100.00;58600.66;4965785;28;20034;-73
2023/04/22 05:15:58;;;;;;;14.38;9.82;;;;;;;-145.41;100.00;58600.66;4963334;28;20030;-73
2023/04/22 05:18:24;;;;;;;14.73;9.90;;;;;;;-145.41;100.00;58600.66;4966081;28;20525;-73
2023/04/22 05:20:50;;;;;;;14.20;10.23;;;;;;;-145.41;100.00;58600.66;4960245;28;20034;-73
2023/04/22 05:23:17;;;;;;;13.75;10.00;;;;;;;-145.41;100.00;58600.66;4962602;28;20037;-73
2023/04/22 05:25:43;;;;;;;13.23;10.07;;;;;;;-145.41;100.00;58600.66;4966342;28;20034;-73
2023/04/22 05:28:11;;;;;;;13.18;9.50;;;;;;;-145.41;100.00;58600.66;4963153;28;20158;-73
2023/04/22 05:30:44;;;;;;;13.63;9.57;;;;;;;-145.41;100.00;58600.66;4970653;28;20031;-73
2023/04/22 05:33:09;;;;;;;12.02;8.75;;;;;;;-145.41;100.00;58600.66;4972120;28;20034;-73
2023/04/22 05:35:35;;;;;;;14.60;10.43;;;;;;;-145.41;100.00;58600.66;4972886;28;20034;-73
2023/04/22 05:38:01;;;;;;;17.83;10.50;;;;;;;-145.41;100.00;58600.66;4964409;28;20066;-73
2023/04/22 05:40:27;;;;;;;15.20;10.00;;;;;;;-145.41;100.00;58600.66;4964336;28;20066;-73
2023/04/22 05:42:53;;;;;;;12.25;8.93;;;;;;;-145.41;100.00;58600.66;4963704;28;20050;-73
2023/04/22 05:45:19;;;;;;;17.33;10.20;;;;;;;-145.41;100.00;58600.66;4973367;28;20035;-73
2023/04/22 05:47:45;;;;;;;15.35;10.10;;;;;;;-145.41;100.00;58600.66;4972785;28;20041;-73
2023/04/22 05:50:10;;;;;;;13.63;9.27;;;;;;;-145.41;100.00;58600.66;4963255;28;20050;-73
2023/04/22 05:52:44;;;;;;;15.45;9.90;;;;;;;-145.41;100.00;58600.66;4957988;28;20465;-73
2023/04/22 05:55:12;;;;;;;14.65;9.32;;;;;;;-145.41;100.00;58600.66;4973160;28;20038;-73
2023/04/22 05:57:38;;;;;;;16.92;10.55;;;;;;;-145.41;100.00;58600.66;4971327;28;20045;-73
2023/04/22 06:00:10;;;;;;;14.50;9.40;;;;;;;-145.41;100.00;58600.66;4961995;28;20039;-73
2023/04/22 06:02:49;;;;;;;15.30;9.73;;;;;;;-145.41;100.00;58600.66;4962712;28;20034;-73
2023/04/22 06:05:14;;;;;;;12.20;8.52;;;;;;;-145.41;100.00;58600.66;4966751;28;20031;-73
2023/04/22 06:07:40;;;;;;;16.48;9.32;;;;;;;-145.41;100.00;58600.66;4986726;28;20073;-73
2023/04/22 06:10:06;;;;;;;13.48;9.40;;;;;;;-145.41;100.00;58600.66;4961495;28;20026;-73
2023/04/22 06:12:33;;;;;;;14.35;9.35;;;;;;;-145.41;100.00;58600.66;4969437;28;20050;-73
2023/04/22 06:14:58;;;;;;;12.85;9.23;;;;;;;-145.41;100.00;58600.66;4983268;28;20049;-73
2023/04/22 06:17:23;;;;;;;13.88;9.38;;;;;;;-145.41;100.00;58600.66;4973043;28;20038;-73
2023/04/22 06:19:50;;;;;;;13.90;8.90;;;;;;;-145.41;100.00;58600.66;4968607;28;20564;-73
2023/04/22 06:22:15;;;;;;;13.02;8.48;;;;;;;-145.41;100.00;58600.66;4973247;28;20030;-73
2023/04/22 06:24:41;;;;;;;10.73;8.32;;;;;;;-145.41;100.00;58600.66;4969289;28;20104;-73
2023/04/22 06:27:06;;;;;;;12.18;8.82;;;;;;;-145.41;100.00;58600.66;4974618;28;20042;-73
2023/04/22 06:29:32;;;;;;;12.88;8.10;;;;;;;-145.41;100.00;58600.66;4975860;28;20042;-73
2023/04/22 06:31:57;;;;;;;13.15;8.95;;;;;;;-145.41;100.00;58600.66;4966197;28;20042;-73
2023/04/22 06:34:23;;;;;;;11.02;8.15;;;;;;;-145.41;100.00;58600.66;4967955;28;20397;-73
2023/04/22 06:36:52;;;;;;;14.23;7.88;;;;;;;-145.41;100.00;58600.66;4965096;28;20039;-72
2023/04/22 06:39:18;;;;;;;11.80;8.57;;;;;;;-145.41;100.00;58600.66;4964930;28;20089;-73
2023/04/22 06:42:02;;;;;;;14.20;8.85;;;;;;;-145.41;100.00;58600.66;4979790;28;20042;-73
2023/04/22 06:44:44;;;;;;;12.30;8.40;;;;;;;-145.41;100.00;58600.66;4973822;28;20031;-73
2023/04/22 06:47:16;;;;;;;11.75;8.20;;;;;;;-145.41;100.00;58600.66;4976711;28;20038;-73
2023/04/22 06:49:52;;;;;;;12.38;8.13;;;;;;;-145.41;100.00;58600.66;4969843;28;20038;-73
2023/04/22 06:52:24;;;;;;;;;;;;;;;-145.41;100.00;58600.66;4976139;28;20034;-73
2023/04/22 06:54:53;;;;;;;10.98;8.18;;;;;;;-145.41;100.00;58600.66;4966858;28;19914;-73
2023/04/22 06:57:18;;;;;;;13.18;8.40;;;;;;;-145.41;100.00;58600.66;4971622;28;20577;-73
2023/04/22 06:59:43;;;;;;;11.50;8.43;;;;;;;-145.41;100.00;58600.66;4984977;28;20541;-73
2023/04/22 07:02:09;;;;;;;11.30;8.20;;;;;;;-145.41;100.00;58600.66;4973406;28;20449;-73
2023/04/22 07:04:37;;;;;;;10.73;7.80;;;;;;;-145.41;100.00;58600.66;4976251;28;20092;-73
2023/04/22 07:07:03;;;;;;;13.05;7.78;;;;;;;-145.41;100.00;58600.66;4973079;28;20043;-73
2023/04/22 07:09:29;;;;;;;13.32;8.20;;;;;;;-145.41;100.00;58600.66;4968079;28;20444;-73
2023/04/22 07:11:56;;;;;;;11.82;8.07;;;;;;;-145.41;100.00;58600.66;4964352;28;20146;-73
2023/04/22 07:14:25;;;;;;;13.65;8.50;;;;;;;-145.41;100.00;58600.66;4956471;28;20035;-73
2023/04/22 07:16:50;;;;;;;12.15;9.10;;;;;;;-145.41;100.00;58600.66;4983801;28;20038;-73
2023/04/22 07:19:16;;;;;;;10.93;8.43;;;;;;;-145.41;100.00;58600.66;4982492;28;20045;-73
2023/04/22 07:21:41;;;;;;;11.27;7.32;;;;;;;-145.41;100.00;58600.66;4984415;28;20077;-73
2023/04/22 07:24:10;;;;;;;10.52;8.10;;;;;;;-145.41;100.00;58600.66;4982925;28;20042;-73
2023/04/22 07:26:37;;;;;;;12.05;8.35;;;;;;;-145.41;100.00;58600.66;4983886;28;20038;-74
2023/04/22 07:29:02;;;;;;;12.73;8.13;;;;;;;-145.41;100.00;58600.66;4985126;28;20042;-74
2023/04/22 07:31:28;;;;;;;11.20;7.75;;;;;;;-145.41;100.00;58600.66;4983388;28;20049;-73
2023/04/22 07:33:53;;;;;;;13.18;7.75;;;;;;;-145.41;100.00;58600.66;4983438;28;20493;-73
2023/04/22 07:36:18;;;;;;;11.77;7.53;;;;;;;-145.41;100.00;58600.66;4983602;28;20552;-73
2023/04/22 07:38:44;;;;;;;10.88;7.90;;;;;;;-145.41;100.00;58600.66;4983130;28;20489;-73
2023/04/22 07:41:09;;;;;;;11.15;6.72;;;;;;;-145.41;100.00;58600.66;4983491;28;20039;-73
2023/04/22 07:43:34;;;;;;;11.45;7.95;;;;;;;-145.41;100.00;58600.66;4982897;28;20120;-73
2023/04/22 07:46:00;;;;;;;13.52;7.72;;;;;;;-145.41;100.00;58600.66;4983389;28;20042;-73
2023/04/22 07:48:25;;;;;;;11.57;7.68;;;;;;;-145.41;100.00;58600.66;4983030;28;20168;-73
2023/04/22 07:50:50;;;;;;;9.13;6.22;;;;;;;-145.41;100.00;58600.66;5004625;22;20050;-75
2023/04/22 07:53:16;;;;;;;9.98;6.72;;;;;;;-145.41;100.00;58600.66;5002035;28;20443;-75
2023/04/22 07:55:41;;;;;;;8.32;5.90;;;;;;;-145.41;100.00;58600.66;5004499;28;20101;-75
2023/04/22 07:58:07;;;;;;;9.43;6.97;;;;;;;-145.41;100.00;58600.66;5003308;28;20045;-75
2023/04/22 08:00:35;;;;;;;10.30;7.07;;;;;;;-145.41;100.00;58600.66;4993142;28;20034;-76
2023/04/22 08:03:01;;;;;;;10.85;7.47;;;;;;;-145.41;100.00;58600.66;4984974;28;20068;-75
2023/04/22 08:05:27;;;;;;;11.10;6.70;;;;;;;-145.41;100.00;58600.66;4984702;28;20564;-75
2023/04/22 08:07:52;;;;;;;8.10;6.35;;;;;;;-145.41;100.00;58600.66;4984763;28;20097;-76
2023/04/22 08:10:17;;;;;;;10.15;6.68;;;;;;;-145.41;100.00;58600.66;4980678;28;20039;-75
2023/04/22 08:12:43;;;;;;;10.43;6.43;;;;;;;-145.41;100.00;58600.66;4984457;28;20045;-75
2023/04/22 08:15:08;;;;;;;10.43;5.95;;;;;;;-145.41;100.00;58600.66;4987283;28;20034;-75
2023/04/22 08:17:34;;;;;;;8.27;5.97;;;;;;;-145.41;100.00;58600.66;4984647;28;20042;-76
2023/04/22 08:19:59;;;;;;;11.25;5.97;;;;;;;-145.41;100.00;58600.66;4980432;28;20054;-75
2023/04/22 08:22:26;;;;;;;8.70;5.75;;;;;;;-145.41;100.00;58600.66;4974902;28;20167;-75
2023/04/22 08:24:51;;;;;;;8.73;5.72;;;;;;;-145.41;100.00;58600.66;4984824;28;20047;-76
2023/04/22 08:27:18;;;;;;;8.23;5.25;;;;;;;-145.41;100.00;58600.66;4983900;28;20452;-75
2023/04/22 08:29:43;;;;;;;8.20;5.60;;;;;;;-145.41;100.00;58600.66;4980616;28;20047;-75
2023/04/22 08:32:09;;;;;;;9.98;5.60;;;;;;;-145.41;100.00;58600.66;4985529;28;20042;-75
2023/04/22 08:34:34;;;;;;;7.10;4.95;;;;;;;-145.41;100.00;58600.66;4983228;28;20118;-76
2023/04/22 08:36:59;;;;;;;7.75;4.82;;;;;;;-145.41;100.00;58600.66;4983475;28;20035;-76
2023/04/22 08:39:25;;;;;;;6.88;5.15;;;;;;;-145.41;100.00;58600.66;4981120;28;20409;-75
2023/04/22 08:41:50;;;;;;;9.93;5.05;;;;;;;-145.41;100.00;58600.66;4987439;28;20072;-75
2023/04/22 08:44:16;;;;;;;11.90;5.43;;;;;;;-145.41;100.00;58600.66;4983192;28;20469;-76
2023/04/22 08:46:45;;;;;;;7.57;4.47;;;;;;;-145.41;100.00;58600.66;4981559;28;20047;-75
2023/04/22 08:49:15;;;;;;;6.07;3.92;;;;;;;-145.41;100.00;58600.66;4986537;28;20093;-75
2023/04/22 08:51:42;;;;;;;6.88;4.38;;;;;;;-145.41;100.00;58600.66;4984057;28;20066;-76
2023/04/22 08:54:08;;;;;;;8.40;5.15;;;;;;;-145.41;100.00;58600.66;4983953;28;20046;-75
2023/04/22 08:56:34;;;;;;;6.20;4.05;;;;;;;-145.41;100.00;58600.66;4984099;28;20034;-75
2023/04/22 08:59:00;;;;;;;7.95;4.30;;;;;;;-145.41;100.00;58600.66;4981413;28;20047;-76
2023/04/22 09:01:28;;;;;;;7.28;3.75;;;;;;;-145.41;100.00;58600.66;4983299;28;20420;-75
2023/04/22 09:03:57;;;;;;;9.65;4.03;;;;;;;-145.41;100.00;58600.66;4980279;28;20520;-76
2023/04/22 09:06:22;;;;;;;7.28;3.47;;;;;;;-145.41;100.00;58600.66;4983961;28;20041;-75
2023/04/22 09:08:49;;;;;;;8.35;3.92;;;;;;;-145.41;100.00;58600.66;4983188;28;20404;-76
2023/04/22 09:11:15;;;;;;;7.97;4.00;;;;;;;-145.41;100.00;58600.66;4983253;28;20753;-76
2023/04/22 09:13:41;;;;;;;8.60;4.80;;;;;;;-145.41;100.00;58600.66;4980919;28;20457;-76
2023/04/22 09:16:06;;;;;;;12.65;3.92;;;;;;;-145.41;100.00;58600.66;4983865;28;20042;-76
2023/04/22 09:18:39;;;;;;;7.57;3.58;;;;;;;-145.41;100.00;58600.66;4982826;28;20045;-76
2023/04/22 09:21:05;;;;;;;9.35;4.10;;;;;;;-145.41;100.00;58600.66;4983490;28;20069;-75
2023/04/22 09:23:30;;;;;;;7.25;3.10;;;;;;;-145.41;100.00;58600.66;4985636;28;20047;-76
2023/04/22 09:25:57;;;;;;;8.00;3.13;;;;;;;-145.41;100.00;58600.66;4984623;28;20038;-76
2023/04/22 09:28:22;;;;;;;8.13;3.38;;;;;;;-145.41;100.00;58600.66;4982318;28;20047;-75
2023/04/22 09:30:47;;;;;;;5.55;3.50;;;;;;;-145.41;100.00;58600.66;4980838;28;20038;-76
2023/04/22 09:33:13;;;;;;;7.82;3.20;;;;;;;-145.41;100.00;58600.66;4983823;28;20065;-76
2023/04/22 09:35:40;;;;;;;6.25;3.08;;;;;;;-145.41;100.00;58600.66;4980966;28;20034;-76
2023/04/22 09:38:09;;;;;;;6.22;3.50;;;;;;;-145.41;100.00;58600.66;4982682;28;20072;-76
2023/04/22 09:40:36;;;;;;;7.07;3.17;;;;;;;-145.41;100.00;58600.66;4975331;28;20129;-76
2023/04/22 09:43:06;;;;;;;6.93;3.33;;;;;;;-145.41;100.00;58600.66;4983531;28;20114;-76
2023/04/22 09:45:36;;;;;;;7.18;3.13;;;;;;;-145.41;100.00;58600.66;4986814;28;20038;-75
2023/04/22 09:48:19;;;;;;;6.55;3.58;;;;;;;-145.41;100.00;58600.66;4984910;28;20038;-76
2023/04/22 09:50:47;;;;;;;8.00;3.50;;;;;;;-145.41;100.00;58600.66;4984715;28;20616;-76
2023/04/22 09:53:15;;;;;;;11.88;3.40;;;;;;;-145.41;100.00;58600.66;4983773;28;20049;-76
2023/04/22 09:55:46;;;;;;;9.13;3.17;;;;;;;-145.41;100.00;58600.66;4990153;28;20072;-75
2023/04/22 09:58:15;;;;;;;5.40;2.97;;;;;;;-145.41;100.00;58600.66;4985042;28;20073;-76
2023/04/22 10:00:46;;;;;;;7.38;3.17;;;;;;;-145.41;100.00;58600.66;4984696;28;20042;-76
2023/04/22 10:03:12;;;;;;;4.78;3.03;;;;;;;-145.41;100.00;58600.66;4986096;28;20038;-75
2023/04/22 10:05:37;;;;;;;7.55;3.58;;;;;;;-145.41;100.00;58600.66;4984118;28;20046;-75
2023/04/22 10:08:04;;;;;;;7.18;3.22;;;;;;;-145.41;100.00;58600.66;4986906;28;20461;-75
2023/04/22 10:10:30;;;;;;;5.43;3.50;;;;;;;-145.41;100.00;58600.66;4986660;28;20046;-75
2023/04/22 10:12:56;;;;;;;7.80;3.10;;;;;;;-145.41;100.00;58600.66;4983183;28;20035;-76
2023/04/22 10:15:22;;;;;;;7.80;3.33;;;;;;;-145.41;100.00;58600.66;4986841;28;20062;-76
2023/04/22 10:17:50;;;;;;;6.80;3.45;;;;;;;-145.41;100.00;58600.66;4982963;28;20038;-76
2023/04/22 10:20:18;;;;;;;4.90;2.78;;;;;;;-145.41;100.00;58600.66;4983186;28;20038;-76
2023/04/22 10:22:44;;;;;;;7.22;3.20;;;;;;;-145.41;100.00;58600.66;4986099;28;20062;-76
2023/04/22 10:25:22;;;;;;;7.63;3.03;;;;;;;-145.41;100.00;58600.66;4989026;28;20492;-76
2023/04/22 10:28:04;;;;;;;7.75;3.05;;;;;;;-145.41;100.00;58600.66;4985593;28;20038;-76
2023/04/22 10:30:31;;;;;;;6.65;3.25;;;;;;;-145.41;100.00;58600.66;4983462;28;20039;-75
2023/04/22 10:33:30;;;;;;;10.27;3.22;;;;;;;-145.41;100.00;58600.66;4985019;28;20117;-75
2023/04/22 10:36:14;;;;;;;7.25;2.67;;;;;;;-145.41;100.00;58600.66;4984775;28;20117;-76
2023/04/22 10:38:41;;;;;;;7.72;3.47;;;;;;;-145.41;100.00;58600.66;4983310;28;20074;-76
2023/04/22 10:41:12;;;;;;;5.90;2.97;;;;;;;-145.41;100.00;58600.66;4986093;28;20042;-76
2023/04/22 10:43:46;;;;;;;6.80;3.30;;;;;;;-145.41;100.00;58600.66;4969095;28;20043;-75
2023/04/22 10:46:33;;;;;;;5.13;3.17;;;;;;;-145.41;100.00;58600.66;4983135;28;20109;-75
2023/04/22 10:49:10;;;;;;;6.13;3.25;;;;;;;-145.41;100.00;58600.66;4984409;28;20043;-76
2023/04/22 10:51:43;;;;;;;7.72;3.15;;;;;;;-145.41;100.00;58600.66;4982121;28;20166;-76
2023/04/22 10:54:35;;;;;;;7.80;3.20;;;;;;;-145.41;100.00;58600.66;4986309;28;20072;-76
2023/04/22 10:57:05;;;;;;;6.78;3.55;;;;;;;-145.41;100.00;58600.66;4985730;28;20064;-75
2023/04/22 10:59:32;;;;;;;6.07;3.10;;;;;;;-145.41;100.00;58600.66;4985706;28;20441;-75
2023/04/22 11:02:02;;;;;;;6.45;3.20;;;;;;;-145.41;100.00;58600.66;4984173;28;20038;-76